Time;durP1;ratioP1;P1;durP2;ratioP2;P2;SDS_P1;SDS_P2;PMS_P1;PMS_P2;Temp;Humidity;BMP_temperature;BMP_pressure;BME280_temperature;BME280_humidity;BME280_pressure;Samples;Min_cycle;Max_cycle;Signal;HPM_P1;HPM_P2
2023/02/19 00:00:13;;;;;;;1.80;1.70;;;;;;;9.83;70.32;101441.25;6236925;28;20634;-70
2023/02/19 00:03:34;;;;;;;2.57;2.37;;;;;;;9.88;70.78;101443.59;6234346;28;20232;-74
2023/02/19 00:06:55;;;;;;;2.27;1.83;;;;;;;10.24;69.87;101440.78;6247817;28;20231;-72
2023/02/19 00:10:16;;;;;;;4.83;3.17;;;;;;;10.36;69.36;101437.97;6243696;28;20231;-72
2023/02/19 00:13:40;;;;;;;1.83;1.73;;;;;;;10.14;69.66;101437.06;6222525;28;20229;-72
2023/02/19 00:17:01;;;;;;;3.77;2.30;;;;;;;10.51;69.46;101437.72;6243923;28;20771;-74
2023/02/19 00:20:22;;;;;;;3.27;2.47;;;;;;;10.18;69.95;101436.69;6233766;28;20228;-73
2023/02/19 00:23:43;;;;;;;6.93;1.80;;;;;;;10.08;70.48;101440.19;6234126;28;20258;-72
2023/02/19 00:27:04;;;;;;;2.63;2.40;;;;;;;10.11;70.38;101440.88;6258898;28;20332;-73
2023/02/19 00:30:26;;;;;;;3.70;1.50;;;;;;;10.41;70.04;101441.13;6241087;28;20676;-73
2023/02/19 00:33:49;;;;;;;1.30;1.20;;;;;;;10.63;69.25;101437.59;6224245;28;20228;-73
2023/02/19 00:37:10;;;;;;;3.80;2.57;;;;;;;10.45;69.25;101428.31;6229892;28;20231;-72
2023/02/19 00:40:31;;;;;;;4.57;2.20;;;;;;;10.48;69.50;101429.88;6263547;28;20227;-73
2023/02/19 00:43:54;;;;;;;8.30;2.20;;;;;;;10.57;68.98;101435.41;6243344;28;20230;-73
2023/02/19 00:47:17;;;;;;;2.60;1.70;;;;;;;10.64;69.55;101442.00;6234938;28;20696;-72
2023/02/19 00:50:37;;;;;;;3.63;1.77;;;;;;;10.70;69.04;101448.75;6234643;28;20228;-73
2023/02/19 00:53:59;;;;;;;5.90;1.60;;;;;;;10.64;69.21;101452.78;6231508;28;20239;-74
2023/02/19 00:57:21;;;;;;;3.57;1.70;;;;;;;10.42;70.41;101448.25;6244559;28;20264;-72
2023/02/19 01:00:42;;;;;;;2.33;1.60;;;;;;;9.76;73.85;101444.53;6232588;28;20228;-72
2023/02/19 01:04:04;;;;;;;4.20;1.87;;;;;;;10.38;71.43;101452.19;6242679;28;20605;-73
2023/02/19 01:07:25;;;;;;;2.03;1.70;;;;;;;10.03;72.37;101454.03;6237221;28;20223;-73
2023/02/19 01:10:47;;;;;;;4.67;2.20;;;;;;;10.11;72.82;101456.16;6256065;28;20227;-73
2023/02/19 01:14:09;;;;;;;3.20;1.63;;;;;;;9.99;73.41;101452.53;6232938;28;20230;-72
2023/02/19 01:17:30;;;;;;;1.97;1.67;;;;;;;10.15;72.11;101446.88;6244542;28;20224;-72
2023/02/19 01:20:52;;;;;;;1.63;1.37;;;;;;;9.47;75.13;101447.56;6251837;28;20308;-73
2023/02/19 01:24:13;;;;;;;2.47;1.60;;;;;;;9.90;74.14;101460.47;6223286;28;20224;-72
2023/02/19 01:27:33;;;;;;;2.00;1.80;;;;;;;10.33;72.18;101453.50;6245093;28;20240;-72
2023/02/19 01:30:54;;;;;;;3.13;1.60;;;;;;;10.28;72.19;101448.47;6238696;28;20313;-72
2023/02/19 01:34:15;;;;;;;1.77;1.67;;;;;;;10.18;72.37;101457.41;6237681;28;20836;-72
2023/02/19 01:37:37;;;;;;;3.47;2.30;;;;;;;10.08;72.91;101454.53;6241559;28;20231;-74
2023/02/19 01:41:00;;;;;;;1.87;1.77;;;;;;;10.39;71.96;101445.81;6237007;28;20236;-72
2023/02/19 01:45:24;;;;;;;1.73;1.63;;;;;;;10.52;71.30;101453.78;6242809;28;20219;-72
2023/02/19 01:48:46;;;;;;;1.50;1.40;;;;;;;9.85;72.25;101446.50;6141367;28;20245;-73
2023/02/19 01:52:13;;;;;;;2.60;1.97;;;;;;;10.08;71.87;101453.66;6179912;28;20219;-71
2023/02/19 01:55:35;;;;;;;1.83;1.40;;;;;;;10.25;70.64;101443.34;6225702;28;20314;-73
2023/02/19 01:58:56;;;;;;;3.70;1.60;;;;;;;10.25;71.46;101447.88;6245885;28;20319;-72
2023/02/19 02:02:18;;;;;;;3.13;1.83;;;;;;;10.01;71.27;101449.75;6256958;28;20233;-72
2023/02/19 02:05:50;;;;;;;1.60;1.50;;;;;;;9.84;71.45;101448.34;6235289;28;20228;-71
2023/02/19 02:12:57;;;;;;;1.60;1.50;;;;;;;9.99;70.65;101449.00;6240496;28;20324;-72
2023/02/19 02:16:24;;;;;;;1.77;1.67;;;;;;;10.05;70.46;101454.78;6217508;28;20230;-72
2023/02/19 02:20:05;;;;;;;1.17;1.07;;;;;;;10.24;69.12;101449.69;6232040;28;20227;-73
2023/02/19 02:23:40;;;;;;;1.80;1.40;;;;;;;9.92;69.96;101453.13;6227758;28;20231;-72
2023/02/19 02:27:17;;;;;;;3.80;2.43;;;;;;;9.91;70.05;101443.38;6246377;28;20232;-73
2023/02/19 02:30:43;;;;;;;2.53;1.67;;;;;;;9.88;69.46;101452.53;6222045;28;20220;-73
2023/02/19 02:34:10;;;;;;;3.57;1.83;;;;;;;9.90;70.09;101453.28;6227583;28;20216;-72
2023/02/19 02:37:36;;;;;;;2.10;1.90;;;;;;;9.56;70.25;101460.34;6241104;28;20495;-73
2023/02/19 02:40:58;;;;;;;3.87;2.13;;;;;;;9.92;70.08;101463.91;6238205;28;20239;-72
2023/02/19 02:44:19;;;;;;;2.30;1.63;;;;;;;9.55;70.94;101465.84;6235845;28;20232;-72
2023/02/19 02:47:44;;;;;;;2.87;2.00;;;;;;;9.62;70.53;101464.41;6240412;28;20232;-72
2023/02/19 02:51:12;;;;;;;3.40;2.40;;;;;;;9.35;70.77;101464.63;6217274;28;20236;-73
2023/02/19 02:58:22;;;;;;;2.20;1.40;;;;;;;9.30;70.61;101458.75;6218598;28;20240;-71
2023/02/19 03:09:13;;;;;;;1.37;1.17;;;;;;;9.60;69.57;101458.28;6246995;28;20234;-72
2023/02/19 03:20:03;;;;;;;4.07;1.93;;;;;;;9.84;69.10;101451.03;6258618;28;20238;-72
2023/02/19 03:27:09;;;;;;;2.60;2.40;;;;;;;9.75;69.76;101467.88;6229114;28;20247;-72
2023/02/19 03:30:37;;;;;;;3.67;1.90;;;;;;;9.93;69.30;101477.25;6228760;28;20655;-72
2023/02/19 03:34:02;;;;;;;2.13;1.57;;;;;;;9.68;69.60;101472.88;6223269;28;20315;-73
2023/02/19 03:37:29;;;;;;;2.70;2.17;;;;;;;9.88;69.16;101481.28;6247498;28;20610;-73
2023/02/19 03:41:03;;;;;;;2.90;1.37;;;;;;;9.94;69.14;101488.88;6255252;28;22185;-72
2023/02/19 03:44:34;;;;;;;2.30;1.30;;;;;;;9.83;69.42;101489.72;6247324;28;20321;-73
2023/02/19 03:48:07;;;;;;;4.07;1.40;;;;;;;9.96;69.60;101486.94;6233801;28;20232;-73
2023/02/19 03:51:37;;;;;;;2.70;1.53;;;;;;;9.85;69.77;101489.59;6229432;28;20236;-74
2023/02/19 03:55:06;;;;;;;1.87;1.77;;;;;;;9.96;69.01;101481.56;6240594;28;20230;-73
2023/02/19 03:58:36;;;;;;;5.43;2.23;;;;;;;10.11;67.95;101496.56;6223876;28;20232;-71
2023/02/19 04:02:03;;;;;;;2.20;2.03;;;;;;;9.95;68.66;101496.84;6240541;28;20227;-72
2023/02/19 04:05:26;;;;;;;3.23;1.77;;;;;;;9.83;69.24;101491.53;6237455;28;20244;-73
2023/02/19 04:08:52;;;;;;;6.37;2.90;;;;;;;9.93;68.55;101504.19;6227222;28;20256;-72
2023/02/19 04:12:16;;;;;;;5.27;2.17;;;;;;;9.96;68.31;101511.19;6249545;28;20224;-72
2023/02/19 04:15:43;;;;;;;1.93;1.83;;;;;;;9.72;69.67;101521.13;6247863;28;20219;-72
2023/02/19 04:19:09;;;;;;;2.43;2.33;;;;;;;9.65;69.63;101504.56;6227896;28;20231;-71
2023/02/19 04:22:31;;;;;;;4.57;1.67;;;;;;;9.77;68.95;101511.72;6240183;28;21211;-72
2023/02/19 04:25:56;;;;;;;3.10;1.97;;;;;;;9.58;69.64;101525.69;6231629;28;20236;-72
2023/02/19 04:29:17;;;;;;;1.83;1.53;;;;;;;9.53;69.93;101527.84;6231067;28;20220;-71
2023/02/19 04:32:39;;;;;;;2.97;1.30;;;;;;;9.65;68.92;101535.03;6241478;28;20339;-72
2023/02/19 04:36:00;;;;;;;1.40;0.80;;;;;;;9.52;69.22;101552.19;6249377;28;20240;-72
2023/02/19 04:39:21;;;;;;;3.23;1.10;;;;;;;9.51;69.42;101556.72;6243934;28;20232;-71
2023/02/19 04:42:42;;;;;;;2.50;1.10;;;;;;;9.55;68.88;101563.59;6236767;28;20233;-71
2023/02/19 04:46:04;;;;;;;3.47;1.27;;;;;;;9.70;68.89;101561.59;6238038;28;20228;-71
2023/02/19 04:49:26;;;;;;;2.23;1.00;;;;;;;9.58;69.73;101568.75;6244632;28;20231;-72
2023/02/19 04:52:47;;;;;;;2.70;1.30;;;;;;;9.48;69.69;101570.41;6234006;28;20263;-73
2023/02/19 04:56:10;;;;;;;3.37;1.50;;;;;;;9.58;69.39;101568.75;6236057;28;20798;-72
2023/02/19 04:59:31;;;;;;;6.27;1.30;;;;;;;9.57;69.66;101569.72;6244493;28;20246;-72
2023/02/19 05:02:52;;;;;;;2.57;1.60;;;;;;;9.37;70.46;101582.91;6244032;28;20638;-72
2023/02/19 05:06:15;;;;;;;2.77;2.30;;;;;;;9.48;69.70;101575.78;6244442;28;20236;-72
2023/02/19 05:09:36;;;;;;;3.37;1.50;;;;;;;9.39;69.93;101579.16;6251205;28;20763;-72
2023/02/19 05:12:56;;;;;;;1.33;1.03;;;;;;;9.32;70.06;101585.09;6243195;28;20331;-73
2023/02/19 05:16:17;;;;;;;6.13;1.63;;;;;;;9.48;69.69;101593.75;6237174;28;20240;-71
2023/02/19 05:19:38;;;;;;;1.43;1.33;;;;;;;9.54;68.74;101588.81;6239759;28;20235;-72
2023/02/19 05:23:00;;;;;;;2.70;1.50;;;;;;;9.43;69.80;101582.47;6238866;28;20231;-72
2023/02/19 05:26:23;;;;;;;1.93;1.80;;;;;;;9.25;69.69;101586.50;6219181;28;20240;-72
2023/02/19 05:29:44;;;;;;;1.20;1.00;;;;;;;9.16;69.56;101590.69;6253098;28;20234;-71
2023/02/19 05:33:05;;;;;;;2.97;1.50;;;;;;;9.13;70.65;101600.84;6250243;28;20227;-72
2023/02/19 05:36:26;;;;;;;2.70;1.67;;;;;;;8.96;70.55;101601.16;6230789;28;20249;-72
2023/02/19 05:39:49;;;;;;;1.60;1.27;;;;;;;8.89;71.43;101605.25;6235635;28;20842;-73
2023/02/19 05:43:12;;;;;;;2.10;1.20;;;;;;;8.91;71.26;101614.91;6238102;28;20240;-72
2023/02/19 05:46:33;;;;;;;1.23;0.93;;;;;;;9.13;70.03;101623.22;6254569;28;20227;-73
2023/02/19 05:49:53;;;;;;;1.80;1.27;;;;;;;8.82;71.17;101624.47;6249534;28;20512;-72
2023/02/19 05:53:15;;;;;;;2.97;1.70;;;;;;;8.79;71.32;101626.53;6235699;28;20251;-73
2023/02/19 05:56:38;;;;;;;1.97;1.87;;;;;;;8.84;71.56;101637.84;6235029;28;20530;-72
2023/02/19 05:59:59;;;;;;;3.33;1.00;;;;;;;8.99;71.07;101635.91;6240135;28;20254;-72
2023/02/19 06:03:20;;;;;;;2.93;1.10;;;;;;;8.95;70.49;101637.94;6221634;28;20312;-72
2023/02/19 06:06:43;;;;;;;1.23;0.87;;;;;;;8.90;72.05;101650.00;6237412;28;20228;-72
2023/02/19 06:10:04;;;;;;;4.93;2.40;;;;;;;8.82;72.10;101656.75;6224722;28;20622;-73
2023/02/19 06:13:26;;;;;;;1.67;1.23;;;;;;;9.04;71.46;101671.41;6223507;28;20506;-72
2023/02/19 06:16:47;;;;;;;2.30;1.40;;;;;;;8.86;71.99;101665.47;6225089;28;20250;-72
2023/02/19 06:20:09;;;;;;;0.80;0.80;;;;;;;8.76;71.67;101683.22;6233972;28;20527;-73
2023/02/19 06:23:31;;;;;;;2.10;1.00;;;;;;;8.83;71.52;101690.75;6235635;28;20247;-72
2023/02/19 06:26:51;;;;;;;1.83;1.17;;;;;;;8.54;72.67;101701.75;6246687;28;20318;-72
2023/02/19 06:30:14;;;;;;;0.83;0.83;;;;;;;8.65;72.38;101709.94;6236362;28;20231;-72
2023/02/19 06:33:35;;;;;;;5.53;3.27;;;;;;;8.58;72.33;101714.00;6222606;28;20224;-73
2023/02/19 06:36:56;;;;;;;1.27;1.17;;;;;;;8.56;72.34;101721.31;6237194;28;20228;-73
2023/02/19 06:40:17;;;;;;;1.57;1.40;;;;;;;8.63;72.02;101734.25;6249901;28;20865;-72
2023/02/19 06:43:38;;;;;;;2.80;1.40;;;;;;;8.46;73.46;101733.63;6230264;28;20304;-72
2023/02/19 06:47:01;;;;;;;1.67;1.37;;;;;;;8.62;72.09;101747.78;6233182;28;20260;-71
2023/02/19 06:50:22;;;;;;;1.90;1.00;;;;;;;8.48;73.09;101758.56;6231021;28;20621;-72
2023/02/19 06:53:42;;;;;;;3.47;1.43;;;;;;;8.51;73.78;101755.69;6221287;28;20230;-72
2023/02/19 06:57:04;;;;;;;1.50;1.40;;;;;;;8.63;72.75;101762.94;6252587;28;20236;-72
2023/02/19 07:00:31;;;;;;;2.43;1.27;;;;;;;8.60;73.84;101765.81;6225358;28;20231;-73
2023/02/19 07:03:53;;;;;;;2.03;1.03;;;;;;;8.45;74.43;101774.91;6233470;28;20269;-73
2023/02/19 07:07:14;;;;;;;1.70;1.10;;;;;;;8.39;73.72;101783.34;6240693;28;20305;-73
2023/02/19 07:10:35;;;;;;;3.30;1.30;;;;;;;8.44;73.65;101773.19;6233331;28;20436;-72
2023/02/19 07:13:56;;;;;;;1.37;1.07;;;;;;;8.56;73.23;101785.81;6217126;28;20259;-72
2023/02/19 07:17:17;;;;;;;1.60;1.50;;;;;;;8.70;73.35;101802.75;6235689;28;20251;-72
2023/02/19 07:20:40;;;;;;;7.47;1.30;;;;;;;8.78;72.42;101799.56;6221695;28;20553;-73
2023/02/19 07:24:01;;;;;;;1.67;1.57;;;;;;;8.59;73.04;101815.19;6245883;28;20231;-73
2023/02/19 07:27:22;;;;;;;3.80;1.90;;;;;;;8.81;72.79;101821.72;6256495;28;21769;-73
2023/02/19 07:30:42;;;;;;;1.50;1.40;;;;;;;8.93;72.22;101817.34;6234964;28;20707;-73
2023/02/19 07:34:03;;;;;;;1.63;1.30;;;;;;;8.96;72.23;101827.91;6243708;28;20332;-73
2023/02/19 07:37:25;;;;;;;1.47;1.30;;;;;;;9.11;71.77;101840.34;6251250;28;20224;-73
2023/02/19 07:40:51;;;;;;;4.77;3.37;;;;;;;9.09;71.75;101839.56;6226006;28;20248;-73
2023/02/19 07:44:15;;;;;;;2.83;1.17;;;;;;;9.20;71.02;101852.31;6228579;28;20227;-72
2023/02/19 07:47:36;;;;;;;5.83;2.63;;;;;;;9.27;70.45;101858.97;6247440;28;20232;-72
2023/02/19 07:50:59;;;;;;;2.10;1.87;;;;;;;9.32;70.47;101860.41;6238931;28;20228;-73
2023/02/19 07:54:22;;;;;;;2.27;1.30;;;;;;;9.28;70.35;101866.94;6226514;28;20294;-73
2023/02/19 07:57:43;;;;;;;3.27;1.40;;;;;;;9.00;71.33;101868.91;6232977;28;20283;-73
2023/02/19 08:01:08;;;;;;;8.27;1.67;;;;;;;9.08;70.84;101875.50;6230999;28;20232;-74
2023/02/19 08:04:28;;;;;;;2.47;1.23;;;;;;;8.66;72.38;101881.84;6233136;28;20611;-73
2023/02/19 08:07:49;;;;;;;3.47;1.57;;;;;;;8.86;70.63;101885.94;6242431;28;20234;-73
2023/02/19 08:14:50;;;;;;;2.97;1.70;;;;;;;8.99;70.59;101894.91;6232781;28;20223;-73
2023/02/19 08:18:15;;;;;;;2.73;1.77;;;;;;;8.86;71.33;101891.31;6231242;28;20225;-73
2023/02/19 08:21:36;;;;;;;3.97;3.67;;;;;;;9.17;69.83;101895.53;6229093;28;20228;-74
2023/02/19 08:24:57;;;;;;;1.07;1.03;;;;;;;9.05;69.93;101886.47;6234538;28;20309;-73
2023/02/19 08:28:20;;;;;;;3.70;2.80;;;;;;;8.77;70.94;101891.91;6234318;28;20311;-70
2023/02/19 08:31:40;;;;;;;7.67;3.03;;;;;;;9.05;69.84;101890.97;6233322;28;20252;-69
2023/02/19 08:35:01;;;;;;;5.07;1.90;;;;;;;8.98;68.99;101895.03;6258768;28;20593;-69
2023/02/19 08:38:23;;;;;;;2.83;1.60;;;;;;;9.58;67.85;101897.16;6228487;28;20560;-69
2023/02/19 08:41:44;;;;;;;1.57;1.47;;;;;;;9.47;68.85;101904.25;6250644;28;20541;-71
2023/02/19 08:45:07;;;;;;;4.07;1.10;;;;;;;9.63;67.46;101907.63;6238905;28;20235;-70
2023/02/19 08:48:27;;;;;;;1.93;0.90;;;;;;;9.49;68.00;101915.78;6230515;28;20220;-70
2023/02/19 08:51:48;;;;;;;1.80;1.70;;;;;;;9.53;68.03;101917.28;6253025;28;20228;-71
2023/02/19 08:55:09;;;;;;;3.93;1.90;;;;;;;10.03;66.04;101928.16;6242263;28;20239;-70
2023/02/19 08:58:31;;;;;;;2.57;2.40;;;;;;;10.03;66.31;101944.31;6247887;28;20223;-70
2023/02/19 09:01:54;;;;;;;2.30;1.97;;;;;;;10.23;64.98;101941.09;6263524;28;20622;-71
2023/02/19 09:05:15;;;;;;;2.47;2.13;;;;;;;10.25;65.14;101954.47;6232526;28;20637;-70
2023/02/19 09:08:36;;;;;;;2.10;1.40;;;;;;;10.31;64.51;101968.38;6221081;28;20277;-72
2023/02/19 09:11:57;;;;;;;1.87;1.40;;;;;;;10.41;63.98;101976.66;6255976;28;20243;-72
2023/02/19 09:15:18;;;;;;;2.13;1.93;;;;;;;10.68;63.64;101973.88;6241408;28;20236;-71
2023/02/19 09:18:40;;;;;;;5.10;2.53;;;;;;;10.81;63.34;101989.03;6230519;28;20248;-71
2023/02/19 09:22:02;;;;;;;3.07;2.40;;;;;;;11.03;62.65;101991.94;6258431;28;20231;-72
2023/02/19 09:25:23;;;;;;;3.57;1.33;;;;;;;11.33;62.21;101982.56;6252160;28;20302;-72
2023/02/19 09:28:43;;;;;;;1.70;1.10;;;;;;;11.10;62.03;101989.63;6229318;28;20236;-72
2023/02/19 09:32:04;;;;;;;3.83;1.13;;;;;;;11.73;60.14;101990.28;6240795;28;20223;-72
2023/02/19 09:35:26;;;;;;;2.03;0.90;;;;;;;12.38;59.83;101993.28;6232471;28;20227;-73
2023/02/19 09:38:47;;;;;;;3.40;1.27;;;;;;;13.38;54.93;101993.28;6253742;28;20554;-71
2023/02/19 09:42:14;;;;;;;1.83;0.90;;;;;;;17.27;46.83;101994.63;6266541;28;20244;-72
2023/02/19 09:45:36;;;;;;;2.63;1.07;;;;;;;18.35;42.37;101994.38;6242504;28;20659;-73
2023/02/19 09:49:03;;;;;;;5.80;1.37;;;;;;;20.66;37.13;101985.34;6233613;28;20919;-72
2023/02/19 09:52:32;;;;;;;1.50;0.60;;;;;;;21.72;35.45;101991.25;6247292;28;20251;-72
2023/02/19 09:55:53;;;;;;;3.25;1.50;;;;;;;23.49;33.29;101993.16;6235333;28;20255;-73
2023/02/19 09:59:20;;;;;;;2.30;0.88;;;;;;;23.35;31.75;101999.53;6244101;28;20275;-72
2023/02/19 10:02:41;;;;;;;0.90;0.65;;;;;;;23.52;30.62;102014.81;6254849;28;20228;-73
2023/02/19 10:06:06;;;;;;;2.22;1.77;;;;;;;22.85;31.47;102038.78;6240402;28;20300;-72
2023/02/19 10:09:30;;;;;;;5.20;1.17;;;;;;;22.70;30.56;102046.16;6245987;28;20223;-72
2023/02/19 10:12:53;;;;;;;2.95;1.20;;;;;;;24.04;28.56;102039.38;6239812;28;20225;-72
2023/02/19 10:16:19;;;;;;;1.30;0.80;;;;;;;24.14;28.17;102041.78;6241369;28;20232;-73
2023/02/19 10:19:40;;;;;;;7.28;1.17;;;;;;;24.40;27.28;102065.00;6239983;28;20225;-72
2023/02/19 10:23:03;;;;;;;1.45;0.55;;;;;;;24.35;26.70;102061.97;6227237;28;20237;-74
2023/02/19 10:26:25;;;;;;;0.77;0.77;;;;;;;26.35;27.28;102076.59;6235997;28;20224;-74
2023/02/19 10:29:48;;;;;;;1.38;0.90;;;;;;;27.56;24.66;102076.94;6244708;28;20317;-74
2023/02/19 10:33:12;;;;;;;0.77;0.50;;;;;;;29.98;21.40;102061.06;6245642;28;20248;-73
2023/02/19 10:36:36;;;;;;;1.23;1.08;;;;;;;30.23;20.65;102075.69;6238131;28;20236;-74
2023/02/19 10:39:57;;;;;;;6.55;5.07;;;;;;;28.48;22.85;102069.00;6253108;28;20223;-71
2023/02/19 10:43:30;;;;;;;9.82;8.95;;;;;;;25.11;26.07;102074.94;6242817;28;20244;-70
2023/02/19 10:46:54;;;;;;;17.17;13.23;;;;;;;29.48;22.71;102079.00;6244800;28;20764;-68
2023/02/19 10:50:25;;;;;;;39.22;30.10;;;;;;;28.07;22.31;102085.31;6250490;28;20752;-69
2023/02/19 10:53:48;;;;;;;16.23;14.93;;;;;;;27.85;22.18;102070.03;6233119;28;20231;-71
2023/02/19 10:57:29;;;;;;;57.47;52.17;;;;;;;28.02;22.47;102088.72;6232691;28;20557;-68
2023/02/19 11:01:10;;;;;;;56.25;51.13;;;;;;;25.22;26.44;102095.63;6232282;28;20248;-74
2023/02/19 11:04:35;;;;;;;95.00;85.13;;;;;;;27.67;21.92;102106.78;6226571;28;20231;-75
2023/02/19 11:07:57;;;;;;;2.85;2.45;;;;;;;29.82;19.75;102111.78;6239829;28;20228;-73
2023/02/19 11:11:24;;;;;;;2.60;2.00;;;;;;;28.53;20.20;102104.44;6242250;28;20236;-72
2023/02/19 11:14:45;;;;;;;1.70;0.95;;;;;;;27.02;20.51;102107.72;6244908;28;20964;-73
2023/02/19 11:18:21;;;;;;;1.27;0.93;;;;;;;28.32;19.18;102113.97;6238990;28;20243;-72
2023/02/19 11:21:42;;;;;;;0.50;0.45;;;;;;;27.81;19.35;102125.06;6251284;28;20307;-72
2023/02/19 11:25:06;;;;;;;0.68;0.68;;;;;;;28.12;19.64;102107.69;6243127;28;20223;-72
2023/02/19 11:28:31;;;;;;;1.10;0.28;;;;;;;27.33;20.12;102110.66;6247780;28;20225;-72
2023/02/19 11:31:52;;;;;;;1.33;0.30;;;;;;;26.92;20.63;102121.16;6267388;28;20251;-72
2023/02/19 11:35:18;;;;;;;0.28;0.22;;;;;;;26.37;21.16;102125.09;6224670;28;20232;-72
2023/02/19 11:38:38;;;;;;;1.45;0.80;;;;;;;23.49;23.45;102130.81;6233325;28;20236;-73
2023/02/19 11:42:35;;;;;;;0.80;0.63;;;;;;;24.99;23.20;102117.94;6275388;28;20526;-72
2023/02/19 11:46:08;;;;;;;0.98;0.98;;;;;;;26.39;20.94;102122.13;6261958;28;20231;-73
2023/02/19 11:49:43;;;;;;;2.35;1.00;;;;;;;26.33;21.14;102126.56;6251831;28;20501;-73
2023/02/19 11:53:20;;;;;;;5.68;3.78;;;;;;;27.08;20.68;102125.41;6241715;28;20252;-72
2023/02/19 11:56:43;;;;;;;3.28;2.33;;;;;;;27.11;20.87;102134.13;6235313;28;20795;-74
2023/02/19 12:00:23;;;;;;;2.65;1.33;;;;;;;27.20;20.79;102127.31;6240850;28;20235;-73
2023/02/19 12:04:05;;;;;;;1.20;0.70;;;;;;;25.50;21.54;102125.97;6243875;28;20231;-74
2023/02/19 12:07:50;;;;;;;3.78;1.63;;;;;;;20.16;27.29;102123.47;6236368;28;20233;-70
2023/02/19 12:11:33;;;;;;;1.58;1.08;;;;;;;21.55;28.04;102124.97;6232853;28;20486;-73
2023/02/19 12:15:22;;;;;;;0.93;0.82;;;;;;;22.68;26.42;102130.72;6232976;28;20235;-72
2023/02/19 12:19:16;;;;;;;1.48;0.93;;;;;;;25.09;24.63;102112.94;6227049;28;20231;-73
2023/02/19 12:22:44;;;;;;;3.17;1.40;;;;;;;25.59;22.47;102122.00;6235502;28;20240;-72
2023/02/19 12:26:11;;;;;;;0.77;0.50;;;;;;;25.48;23.04;102130.84;6250814;28;20235;-73
2023/02/19 12:29:55;;;;;;;0.70;0.65;;;;;;;23.89;23.05;102142.34;6235683;28;20231;-70
2023/02/19 12:33:43;;;;;;;0.77;0.77;;;;;;;23.44;24.04;102148.94;6223317;28;20614;-70
2023/02/19 12:37:20;;;;;;;3.42;1.02;;;;;;;23.33;24.55;102155.78;6245905;28;20244;-71
2023/02/19 12:40:55;;;;;;;3.53;1.23;;;;;;;22.05;26.67;102152.94;6247940;28;20236;-71
2023/02/19 12:44:23;;;;;;;2.33;1.58;;;;;;;21.97;27.21;102142.00;6235819;28;20289;-70
2023/02/19 12:47:52;;;;;;;1.95;1.05;;;;;;;22.39;27.17;102151.72;6244405;28;20228;-71
2023/02/19 12:51:21;;;;;;;3.25;1.50;;;;;;;20.09;29.40;102152.59;6250559;28;20516;-70
2023/02/19 12:54:46;;;;;;;1.65;1.40;;;;;;;19.22;30.04;102146.47;6249820;28;20235;-70
2023/02/19 12:58:15;;;;;;;1.48;0.85;;;;;;;20.33;28.86;102141.69;6252474;28;20343;-70
2023/02/19 13:01:43;;;;;;;1.48;0.57;;;;;;;21.18;27.07;102132.97;6249029;28;20250;-71
2023/02/19 13:05:13;;;;;;;1.42;1.33;;;;;;;20.55;27.89;102117.25;6241529;28;20227;-70
2023/02/19 13:08:39;;;;;;;2.88;0.82;;;;;;;20.35;28.86;102123.22;6244787;28;20291;-70
2023/02/19 13:12:05;;;;;;;1.15;1.05;;;;;;;20.78;28.73;102113.81;6252196;28;20228;-71
2023/02/19 13:15:34;;;;;;;2.17;1.13;;;;;;;17.64;33.64;102120.88;6239909;28;20237;-70
2023/02/19 13:18:59;;;;;;;1.33;1.02;;;;;;;16.71;36.00;102125.44;6243455;28;20230;-70
2023/02/19 13:26:18;;;;;;;4.53;1.00;;;;;;;18.00;33.46;102127.28;6244337;28;20236;-70
2023/02/19 13:30:02;;;;;;;0.97;0.80;;;;;;;18.39;33.18;102115.06;6241301;28;20314;-71
2023/02/19 13:33:33;;;;;;;2.43;1.33;;;;;;;17.68;33.98;102118.69;6223576;28;20216;-70
2023/02/19 13:36:55;;;;;;;0.50;0.50;;;;;;;19.07;32.58;102119.72;6256143;28;20228;-71
2023/02/19 13:40:30;;;;;;;1.10;1.00;;;;;;;17.51;34.19;102120.34;6246221;28;20295;-69
2023/02/19 13:43:57;;;;;;;2.40;1.23;;;;;;;16.44;35.51;102120.69;6233659;28;20239;-69
2023/02/19 13:47:46;;;;;;;1.03;0.60;;;;;;;15.57;37.71;102127.00;6250512;28;20228;-70
2023/02/19 13:51:39;;;;;;;0.70;0.63;;;;;;;16.44;34.32;102130.72;6235824;28;20229;-71
2023/02/19 13:55:34;;;;;;;1.20;1.00;;;;;;;16.88;34.56;102132.00;6232984;28;20310;-72
2023/02/19 13:59:00;;;;;;;2.30;0.73;;;;;;;16.12;34.79;102130.13;6229779;28;20228;-72
2023/02/19 14:02:27;;;;;;;1.00;0.70;;;;;;;16.28;35.66;102130.44;6222302;28;20233;-73
2023/02/19 14:06:00;;;;;;;1.13;1.00;;;;;;;15.48;37.42;102129.69;6247647;28;20228;-71
2023/02/19 14:09:44;;;;;;;1.80;1.70;;;;;;;16.77;35.15;102136.59;6233792;28;20276;-74
2023/02/19 14:13:07;;;;;;;1.27;0.93;;;;;;;15.22;37.86;102145.56;6242117;28;20220;-74
2023/02/19 14:16:50;;;;;;;0.83;0.77;;;;;;;15.66;37.52;102139.78;6226200;28;20217;-73
2023/02/19 14:20:42;;;;;;;3.00;1.37;;;;;;;13.81;40.19;102166.75;6243919;28;20232;-74
2023/02/19 14:24:04;;;;;;;2.17;1.40;;;;;;;15.07;38.99;102150.47;6244692;28;20555;-71
2023/02/19 14:27:25;;;;;;;1.40;0.90;;;;;;;16.51;36.63;102137.34;6246869;28;20254;-71
2023/02/19 14:30:50;;;;;;;9.70;1.60;;;;;;;17.99;32.98;102155.56;6217868;28;20232;-72
2023/02/19 14:34:21;;;;;;;2.10;1.43;;;;;;;17.57;33.47;102144.31;6226621;28;20232;-71
2023/02/19 14:37:44;;;;;;;0.57;0.57;;;;;;;17.66;32.96;102143.41;6245260;28;20378;-72
2023/02/19 14:41:06;;;;;;;3.53;0.60;;;;;;;18.19;32.32;102140.81;6242986;28;20240;-71
2023/02/19 14:44:30;;;;;;;0.77;0.67;;;;;;;17.97;33.12;102125.72;6237539;28;20318;-71
2023/02/19 14:47:52;;;;;;;2.20;1.43;;;;;;;17.98;32.66;102124.69;6245722;28;20272;-72
2023/02/19 14:51:27;;;;;;;0.70;0.70;;;;;;;17.03;34.83;102131.41;6245410;28;20232;-72
2023/02/19 14:54:52;;;;;;;3.60;1.10;;;;;;;17.47;34.82;102108.00;6249679;28;20230;-72
2023/02/19 14:58:18;;;;;;;0.67;0.63;;;;;;;17.15;35.57;102116.59;6257387;28;20235;-72
2023/02/19 15:01:39;;;;;;;0.70;0.70;;;;;;;15.88;37.58;102114.19;6257487;28;20643;-70
2023/02/19 15:05:00;;;;;;;0.87;0.80;;;;;;;15.44;39.01;102107.34;6230464;28;20236;-71
2023/02/19 15:08:29;;;;;;;2.37;1.07;;;;;;;14.99;39.68;102122.25;6228012;28;20606;-71
2023/02/19 15:11:50;;;;;;;1.70;0.93;;;;;;;15.25;39.07;102123.53;6248716;28;20613;-69
2023/02/19 15:15:18;;;;;;;1.60;1.03;;;;;;;14.39;40.99;102126.53;6275178;28;20234;-71
2023/02/19 15:18:38;;;;;;;3.03;2.03;;;;;;;13.63;42.89;102128.47;6255285;28;20254;-71
2023/02/19 15:22:00;;;;;;;2.30;0.83;;;;;;;13.49;43.21;102131.44;6254151;28;20593;-70
2023/02/19 15:25:24;;;;;;;2.23;1.77;;;;;;;13.65;42.96;102129.19;6242816;28;20231;-70
2023/02/19 15:28:45;;;;;;;3.50;1.20;;;;;;;13.56;43.28;102121.81;6239682;28;20227;-71
2023/02/19 15:32:17;;;;;;;4.00;1.17;;;;;;;13.83;42.53;102132.25;6247556;28;20240;-68
2023/02/19 15:39:23;;;;;;;1.33;0.90;;;;;;;13.30;44.59;102131.19;6081825;23;20263;-69
2023/02/19 15:42:47;;;;;;;1.17;0.93;;;;;;;13.37;44.38;102129.72;6066316;29;20256;-70
2023/02/19 15:46:15;;;;;;;0.60;0.60;;;;;;;13.29;44.74;102140.28;6064934;29;20552;-69
2023/02/19 15:49:43;;;;;;;2.90;2.07;;;;;;;13.26;44.81;102132.41;6057129;29;20642;-69
2023/02/19 15:53:11;;;;;;;2.53;1.27;;;;;;;13.11;45.39;102149.88;6039938;29;20736;-68
2023/02/19 15:56:38;;;;;;;3.37;1.23;;;;;;;12.90;46.47;102146.09;6055199;29;20232;-69
2023/02/19 16:00:09;;;;;;;0.90;0.80;;;;;;;12.79;46.60;102147.81;6069853;29;20622;-68
2023/02/19 16:03:33;;;;;;;2.77;1.73;;;;;;;12.98;45.83;102160.78;6066830;29;20552;-71
2023/02/19 16:06:56;;;;;;;1.10;1.10;;;;;;;12.91;46.03;102155.97;6070425;29;20234;-71
2023/02/19 16:10:23;;;;;;;0.70;0.53;;;;;;;12.70;46.77;102162.03;6059395;29;21232;-71
2023/02/19 16:13:44;;;;;;;0.93;0.67;;;;;;;13.04;46.41;102157.63;6059721;29;20839;-71
2023/02/19 16:17:13;;;;;;;0.80;0.57;;;;;;;12.46;47.29;102152.25;6081247;29;20319;-71
2023/02/19 16:20:38;;;;;;;3.33;0.80;;;;;;;12.33;48.08;102160.44;6054632;29;20666;-71
2023/02/19 16:24:05;;;;;;;0.97;0.70;;;;;;;12.28;48.57;102159.94;6047124;29;20240;-72
2023/02/19 16:27:30;;;;;;;2.23;0.77;;;;;;;12.26;49.04;102155.63;6065725;29;20261;-71
2023/02/19 16:30:57;;;;;;;3.13;1.93;;;;;;;12.13;49.80;102155.66;6072203;29;20234;-70
2023/02/19 16:34:33;;;;;;;5.67;3.50;;;;;;;12.37;49.66;102172.75;6060437;29;20552;-69
2023/02/19 16:37:58;;;;;;;2.37;1.53;;;;;;;11.84;50.93;102165.06;6079579;29;20240;-69